This is the latest recevied weather packets stored in our database for station/object KD8OZS. If no packets are shown the sender has not sent any weather packets the latest 10 day(s).
| Time | Temp. | Humidity | Pressure | Rain* | Wind** | Luminosity | Snow |
|---|---|---|---|---|---|---|---|
| 1787424757 | 27.22° C | 70% | 1003.1 hPa | 0 mm | - | 632 W/m² | - |
| 1787424452 | 27.22° C | 72% | 1003.2 hPa | 0 mm | - | 620 W/m² | - |
| 1787424147 | 26.67° C | 73% | 1003.5 hPa | 0 mm | - | 501 W/m² | - |
| 1787423843 | 27.22° C | 73% | 1003.5 hPa | 0 mm | - | 370 W/m² | - |
| 1787423539 | 27.78° C | 71% | 1003.4 hPa | 0 mm | - | 559 W/m² | - |
| 1787423235 | 27.22° C | 74% | 1003.3 hPa | 0 mm | - | 577 W/m² | - |
| 1787422931 | 27.22° C | 77% | 1003.5 hPa | 0 mm | - | 569 W/m² | - |
| 1787422626 | 27.78° C | 73% | 1003.5 hPa | 0 mm | - | 251 W/m² | - |
| 1787422322 | 26.67° C | 77% | 1003.8 hPa | 0 mm | - | 689 W/m² | - |
| 1787422018 | 26.67° C | 77% | 1003.9 hPa | 0 mm | - | 441 W/m² | - |
| 1787421715 | 26.67° C | 76% | 1004 hPa | 0 mm | - | 705 W/m² | - |
| 1787421409 | 26.67° C | 78% | 1004 hPa | 0 mm | - | 609 W/m² | - |
| 1787421104 | 26.67° C | 76% | 1004.1 hPa | 0 mm | - | 550 W/m² | - |
| 1787420800 | 26.67° C | 77% | 1004.2 hPa | 0 mm | - | 703 W/m² | - |
| 1787420496 | 26.67° C | 78% | 1004.6 hPa | 0 mm | - | 560 W/m² | - |
| 1787420192 | 26.67° C | 78% | 1004.6 hPa | 0 mm | - | 592 W/m² | - |
| 1787419888 | 26.11° C | 79% | 1004.6 hPa | 0 mm | - | 641 W/m² | - |
| 1787419579 | 26.11° C | 79% | 1004.7 hPa | 0 mm | - | 247 W/m² | - |
| 1787419278 | 25.56° C | 80% | 1004.8 hPa | 0 mm | - | 262 W/m² | - |
| 1787418974 | 26.11° C | 81% | 1004.8 hPa | 0 mm | - | 267 W/m² | - |
| 1787418669 | 25.56° C | 80% | 1005 hPa | 0 mm | - | 239 W/m² | - |
| 1787418366 | 25.56° C | 81% | 1005.1 hPa | 0 mm | - | 211 W/m² | - |
| 1787418062 | 25.56° C | 81% | 1005.1 hPa | 0 mm | - | 224 W/m² | - |
| 1787417757 | 25.56° C | 83% | 1005.4 hPa | 0 mm | - | 215 W/m² | - |
| 1787417457 | 25.56° C | 84% | 1005.1 hPa | 0 mm | - | 277 W/m² | - |
* Rain latest hour (hover to see other rain measurements)
** Current wind speed in m/s (hover to see current wind gust speed)